sensor_id;sensor_type;location;lat;lon;timestamp;P1;durP1;ratioP1;P2;durP2;ratioP2
47337;SDS011;33069;51.970;5.892;2023-08-24T00:00:53;13.30;;;12.00;;
47337;SDS011;33069;51.970;5.892;2023-08-24T00:03:39;18.58;;;11.40;;
47337;SDS011;33069;51.970;5.892;2023-08-24T00:06:25;15.57;;;11.82;;
47337;SDS011;33069;51.970;5.892;2023-08-24T00:09:12;12.60;;;11.32;;
47337;SDS011;33069;51.970;5.892;2023-08-24T00:12:00;12.18;;;11.10;;
47337;SDS011;33069;51.970;5.892;2023-08-24T00:14:46;14.48;;;11.40;;
47337;SDS011;33069;51.970;5.892;2023-08-24T00:17:32;14.10;;;10.77;;
47337;SDS011;33069;51.970;5.892;2023-08-24T00:20:18;12.27;;;11.07;;
47337;SDS011;33069;51.970;5.892;2023-08-24T00:23:05;14.18;;;11.25;;
47337;SDS011;33069;51.970;5.892;2023-08-24T00:25:51;12.68;;;11.48;;
47337;SDS011;33069;51.970;5.892;2023-08-24T00:28:37;12.98;;;11.68;;
47337;SDS011;33069;51.970;5.892;2023-08-24T00:31:23;13.57;;;11.27;;
47337;SDS011;33069;51.970;5.892;2023-08-24T00:34:08;15.15;;;11.43;;
47337;SDS011;33069;51.970;5.892;2023-08-24T00:36:54;12.93;;;11.73;;
47337;SDS011;33069;51.970;5.892;2023-08-24T00:39:40;12.35;;;11.25;;
47337;SDS011;33069;51.970;5.892;2023-08-24T00:42:26;18.10;;;11.52;;
47337;SDS011;33069;51.970;5.892;2023-08-24T00:45:12;13.10;;;11.35;;
47337;SDS011;33069;51.970;5.892;2023-08-24T00:47:59;12.10;;;10.82;;
47337;SDS011;33069;51.970;5.892;2023-08-24T00:50:45;12.63;;;11.32;;
47337;SDS011;33069;51.970;5.892;2023-08-24T00:53:31;14.43;;;11.68;;
47337;SDS011;33069;51.970;5.892;2023-08-24T00:56:17;13.27;;;11.82;;
47337;SDS011;33069;51.970;5.892;2023-08-24T00:59:09;14.10;;;12.35;;
47337;SDS011;33069;51.970;5.892;2023-08-24T01:01:56;13.50;;;12.07;;
47337;SDS011;33069;51.970;5.892;2023-08-24T01:04:42;13.70;;;12.20;;
47337;SDS011;33069;51.970;5.892;2023-08-24T01:07:28;17.63;;;11.90;;
47337;SDS011;33069;51.970;5.892;2023-08-24T01:10:14;18.00;;;13.18;;
47337;SDS011;33069;51.970;5.892;2023-08-24T01:13:07;13.32;;;11.93;;
47337;SDS011;33069;51.970;5.892;2023-08-24T01:16:04;15.60;;;13.05;;
47337;SDS011;33069;51.970;5.892;2023-08-24T01:18:55;15.52;;;12.75;;
47337;SDS011;33069;51.970;5.892;2023-08-24T01:21:44;16.33;;;13.88;;
47337;SDS011;33069;51.970;5.892;2023-08-24T01:24:32;16.77;;;13.70;;
47337;SDS011;33069;51.970;5.892;2023-08-24T01:27:26;17.35;;;13.95;;
47337;SDS011;33069;51.970;5.892;2023-08-24T01:30:14;17.60;;;13.88;;
47337;SDS011;33069;51.970;5.892;2023-08-24T01:33:04;19.63;;;15.48;;
47337;SDS011;33069;51.970;5.892;2023-08-24T01:35:50;16.73;;;13.00;;
47337;SDS011;33069;51.970;5.892;2023-08-24T01:38:36;15.95;;;13.57;;
47337;SDS011;33069;51.970;5.892;2023-08-24T01:41:24;19.20;;;14.10;;
47337;SDS011;33069;51.970;5.892;2023-08-24T01:44:16;17.40;;;14.70;;
47337;SDS011;33069;51.970;5.892;2023-08-24T01:47:06;19.67;;;15.15;;
47337;SDS011;33069;51.970;5.892;2023-08-24T01:49:56;16.45;;;14.43;;
47337;SDS011;33069;51.970;5.892;2023-08-24T01:52:43;22.23;;;16.13;;
47337;SDS011;33069;51.970;5.892;2023-08-24T01:55:29;19.60;;;16.38;;
47337;SDS011;33069;51.970;5.892;2023-08-24T01:58:15;23.63;;;17.88;;
47337;SDS011;33069;51.970;5.892;2023-08-24T02:01:01;19.38;;;17.20;;
47337;SDS011;33069;51.970;5.892;2023-08-24T02:03:47;23.15;;;17.25;;
47337;SDS011;33069;51.970;5.892;2023-08-24T02:06:33;24.15;;;17.05;;
47337;SDS011;33069;51.970;5.892;2023-08-24T02:09:19;23.50;;;17.27;;
47337;SDS011;33069;51.970;5.892;2023-08-24T02:12:05;23.52;;;17.95;;
47337;SDS011;33069;51.970;5.892;2023-08-24T02:14:51;23.65;;;17.95;;
47337;SDS011;33069;51.970;5.892;2023-08-24T02:17:37;17.58;;;15.75;;
47337;SDS011;33069;51.970;5.892;2023-08-24T02:20:23;22.10;;;16.55;;
47337;SDS011;33069;51.970;5.892;2023-08-24T02:23:09;19.02;;;17.10;;
47337;SDS011;33069;51.970;5.892;2023-08-24T02:25:56;28.63;;;18.40;;
47337;SDS011;33069;51.970;5.892;2023-08-24T02:28:42;19.52;;;16.15;;
47337;SDS011;33069;51.970;5.892;2023-08-24T02:31:28;19.70;;;17.55;;
47337;SDS011;33069;51.970;5.892;2023-08-24T02:34:14;19.13;;;16.02;;
47337;SDS011;33069;51.970;5.892;2023-08-24T02:37:00;20.80;;;17.05;;
47337;SDS011;33069;51.970;5.892;2023-08-24T02:39:46;27.48;;;17.52;;
47337;SDS011;33069;51.970;5.892;2023-08-24T02:42:33;25.02;;;17.27;;
47337;SDS011;33069;51.970;5.892;2023-08-24T02:45:19;19.70;;;17.30;;
47337;SDS011;33069;51.970;5.892;2023-08-24T02:48:05;18.42;;;16.38;;
47337;SDS011;33069;51.970;5.892;2023-08-24T02:50:51;21.40;;;17.10;;
47337;SDS011;33069;51.970;5.892;2023-08-24T02:53:38;23.00;;;17.23;;
47337;SDS011;33069;51.970;5.892;2023-08-24T02:56:24;24.65;;;17.30;;
47337;SDS011;33069;51.970;5.892;2023-08-24T02:59:10;22.55;;;18.27;;
47337;SDS011;33069;51.970;5.892;2023-08-24T03:01:55;26.08;;;17.00;;
47337;SDS011;33069;51.970;5.892;2023-08-24T03:04:41;20.92;;;17.98;;
47337;SDS011;33069;51.970;5.892;2023-08-24T03:07:27;23.50;;;19.85;;
47337;SDS011;33069;51.970;5.892;2023-08-24T03:10:13;27.48;;;20.48;;
47337;SDS011;33069;51.970;5.892;2023-08-24T03:12:59;25.23;;;18.92;;
47337;SDS011;33069;51.970;5.892;2023-08-24T03:15:45;26.77;;;20.55;;
47337;SDS011;33069;51.970;5.892;2023-08-24T03:18:31;27.52;;;21.92;;
47337;SDS011;33069;51.970;5.892;2023-08-24T03:21:17;28.55;;;18.00;;
47337;SDS011;33069;51.970;5.892;2023-08-24T03:24:03;32.38;;;24.35;;
47337;SDS011;33069;51.970;5.892;2023-08-24T03:26:50;30.58;;;23.38;;
47337;SDS011;33069;51.970;5.892;2023-08-24T03:29:36;28.75;;;22.75;;
47337;SDS011;33069;51.970;5.892;2023-08-24T03:32:21;25.33;;;21.42;;
47337;SDS011;33069;51.970;5.892;2023-08-24T03:35:08;30.48;;;22.13;;
47337;SDS011;33069;51.970;5.892;2023-08-24T03:37:54;28.25;;;23.77;;
47337;SDS011;33069;51.970;5.892;2023-08-24T03:40:40;29.15;;;22.05;;
47337;SDS011;33069;51.970;5.892;2023-08-24T03:43:26;27.10;;;22.95;;
47337;SDS011;33069;51.970;5.892;2023-08-24T03:46:12;27.25;;;22.45;;
47337;SDS011;33069;51.970;5.892;2023-08-24T03:48:58;27.02;;;22.33;;
47337;SDS011;33069;51.970;5.892;2023-08-24T03:51:44;30.15;;;22.77;;
47337;SDS011;33069;51.970;5.892;2023-08-24T03:54:29;28.35;;;22.92;;
47337;SDS011;33069;51.970;5.892;2023-08-24T03:57:15;24.75;;;22.10;;
47337;SDS011;33069;51.970;5.892;2023-08-24T04:00:01;29.20;;;23.27;;
47337;SDS011;33069;51.970;5.892;2023-08-24T04:02:51;27.88;;;24.65;;
47337;SDS011;33069;51.970;5.892;2023-08-24T04:05:37;34.47;;;24.55;;
47337;SDS011;33069;51.970;5.892;2023-08-24T04:08:23;27.60;;;22.17;;
47337;SDS011;33069;51.970;5.892;2023-08-24T04:11:09;30.30;;;24.40;;
47337;SDS011;33069;51.970;5.892;2023-08-24T04:13:55;31.98;;;23.48;;
47337;SDS011;33069;51.970;5.892;2023-08-24T04:16:41;27.40;;;22.40;;
47337;SDS011;33069;51.970;5.892;2023-08-24T04:19:27;28.60;;;23.15;;
47337;SDS011;33069;51.970;5.892;2023-08-24T04:22:13;28.17;;;23.85;;
47337;SDS011;33069;51.970;5.892;2023-08-24T04:24:59;29.05;;;22.40;;
47337;SDS011;33069;51.970;5.892;2023-08-24T04:27:45;30.65;;;22.08;;
47337;SDS011;33069;51.970;5.892;2023-08-24T04:30:31;30.77;;;23.90;;
47337;SDS011;33069;51.970;5.892;2023-08-24T04:33:18;27.38;;;24.52;;
47337;SDS011;33069;51.970;5.892;2023-08-24T04:36:04;28.45;;;24.70;;
47337;SDS011;33069;51.970;5.892;2023-08-24T04:38:51;28.35;;;24.42;;
47337;SDS011;33069;51.970;5.892;2023-08-24T04:41:37;27.40;;;24.35;;
47337;SDS011;33069;51.970;5.892;2023-08-24T04:44:23;35.47;;;24.88;;
47337;SDS011;33069;51.970;5.892;2023-08-24T04:47:09;27.08;;;23.30;;
47337;SDS011;33069;51.970;5.892;2023-08-24T04:49:55;30.52;;;24.75;;
47337;SDS011;33069;51.970;5.892;2023-08-24T04:52:41;31.65;;;23.70;;
47337;SDS011;33069;51.970;5.892;2023-08-24T04:55:27;31.08;;;25.35;;
47337;SDS011;33069;51.970;5.892;2023-08-24T04:58:13;27.60;;;23.73;;
47337;SDS011;33069;51.970;5.892;2023-08-24T05:00:59;34.67;;;23.85;;
47337;SDS011;33069;51.970;5.892;2023-08-24T05:03:45;29.05;;;25.08;;
47337;SDS011;33069;51.970;5.892;2023-08-24T05:06:31;26.10;;;23.00;;
47337;SDS011;33069;51.970;5.892;2023-08-24T05:09:17;36.80;;;26.25;;
47337;SDS011;33069;51.970;5.892;2023-08-24T05:12:03;24.85;;;22.20;;
47337;SDS011;33069;51.970;5.892;2023-08-24T05:14:49;32.08;;;25.70;;
47337;SDS011;33069;51.970;5.892;2023-08-24T05:17:35;31.00;;;23.58;;
47337;SDS011;33069;51.970;5.892;2023-08-24T05:20:22;27.95;;;22.98;;
47337;SDS011;33069;51.970;5.892;2023-08-24T05:23:08;31.23;;;23.73;;
47337;SDS011;33069;51.970;5.892;2023-08-24T05:25:54;31.27;;;25.52;;
47337;SDS011;33069;51.970;5.892;2023-08-24T05:28:41;34.90;;;26.05;;
47337;SDS011;33069;51.970;5.892;2023-08-24T05:31:27;42.10;;;26.75;;
47337;SDS011;33069;51.970;5.892;2023-08-24T05:34:13;28.10;;;23.75;;
47337;SDS011;33069;51.970;5.892;2023-08-24T05:36:59;28.13;;;23.00;;
47337;SDS011;33069;51.970;5.892;2023-08-24T05:39:45;26.10;;;23.05;;
47337;SDS011;33069;51.970;5.892;2023-08-24T05:42:31;26.00;;;23.20;;
47337;SDS011;33069;51.970;5.892;2023-08-24T05:45:17;28.15;;;23.77;;
47337;SDS011;33069;51.970;5.892;2023-08-24T05:48:03;30.67;;;23.90;;
47337;SDS011;33069;51.970;5.892;2023-08-24T05:50:50;30.83;;;23.60;;
47337;SDS011;33069;51.970;5.892;2023-08-24T05:53:36;28.98;;;24.52;;
47337;SDS011;33069;51.970;5.892;2023-08-24T05:56:22;28.80;;;25.70;;
47337;SDS011;33069;51.970;5.892;2023-08-24T05:59:08;29.98;;;24.45;;
47337;SDS011;33069;51.970;5.892;2023-08-24T06:01:54;25.55;;;22.90;;
47337;SDS011;33069;51.970;5.892;2023-08-24T06:04:40;28.98;;;23.98;;
47337;SDS011;33069;51.970;5.892;2023-08-24T06:07:26;28.25;;;25.17;;
47337;SDS011;33069;51.970;5.892;2023-08-24T06:10:12;27.15;;;24.25;;
47337;SDS011;33069;51.970;5.892;2023-08-24T06:12:58;26.50;;;23.83;;
47337;SDS011;33069;51.970;5.892;2023-08-24T06:15:46;28.40;;;25.48;;
47337;SDS011;33069;51.970;5.892;2023-08-24T06:18:32;27.67;;;23.38;;
47337;SDS011;33069;51.970;5.892;2023-08-24T06:21:18;28.02;;;24.52;;
47337;SDS011;33069;51.970;5.892;2023-08-24T06:24:04;28.75;;;23.85;;
47337;SDS011;33069;51.970;5.892;2023-08-24T06:26:50;30.00;;;26.52;;
47337;SDS011;33069;51.970;5.892;2023-08-24T06:29:36;27.35;;;24.38;;
47337;SDS011;33069;51.970;5.892;2023-08-24T06:32:22;27.77;;;23.27;;
47337;SDS011;33069;51.970;5.892;2023-08-24T06:35:08;28.52;;;25.38;;
47337;SDS011;33069;51.970;5.892;2023-08-24T06:37:54;32.30;;;26.20;;
47337;SDS011;33069;51.970;5.892;2023-08-24T06:40:40;29.02;;;24.45;;
47337;SDS011;33069;51.970;5.892;2023-08-24T06:43:26;26.63;;;24.00;;
47337;SDS011;33069;51.970;5.892;2023-08-24T06:46:12;30.85;;;27.30;;
47337;SDS011;33069;51.970;5.892;2023-08-24T06:48:59;33.28;;;25.90;;
47337;SDS011;33069;51.970;5.892;2023-08-24T06:51:45;28.40;;;25.23;;
47337;SDS011;33069;51.970;5.892;2023-08-24T06:54:31;36.53;;;27.65;;
47337;SDS011;33069;51.970;5.892;2023-08-24T06:57:17;30.52;;;27.15;;
47337;SDS011;33069;51.970;5.892;2023-08-24T07:00:03;27.02;;;24.50;;
47337;SDS011;33069;51.970;5.892;2023-08-24T07:02:54;26.88;;;24.13;;
47337;SDS011;33069;51.970;5.892;2023-08-24T07:05:40;28.40;;;25.50;;
47337;SDS011;33069;51.970;5.892;2023-08-24T07:08:26;29.65;;;26.10;;
47337;SDS011;33069;51.970;5.892;2023-08-24T07:11:12;29.67;;;26.58;;
47337;SDS011;33069;51.970;5.892;2023-08-24T07:14:00;35.17;;;28.25;;
47337;SDS011;33069;51.970;5.892;2023-08-24T07:16:46;30.55;;;26.67;;
47337;SDS011;33069;51.970;5.892;2023-08-24T07:19:32;32.42;;;27.88;;
47337;SDS011;33069;51.970;5.892;2023-08-24T07:22:19;30.17;;;27.15;;
47337;SDS011;33069;51.970;5.892;2023-08-24T07:25:05;31.02;;;27.90;;
47337;SDS011;33069;51.970;5.892;2023-08-24T07:27:52;30.40;;;27.33;;
47337;SDS011;33069;51.970;5.892;2023-08-24T07:30:43;37.08;;;32.75;;
47337;SDS011;33069;51.970;5.892;2023-08-24T07:33:29;38.50;;;34.35;;
47337;SDS011;33069;51.970;5.892;2023-08-24T07:36:15;30.73;;;26.77;;
47337;SDS011;33069;51.970;5.892;2023-08-24T07:39:01;34.00;;;27.88;;
47337;SDS011;33069;51.970;5.892;2023-08-24T07:41:47;30.52;;;27.40;;
47337;SDS011;33069;51.970;5.892;2023-08-24T07:44:33;29.02;;;25.83;;
47337;SDS011;33069;51.970;5.892;2023-08-24T07:47:19;29.35;;;26.27;;
47337;SDS011;33069;51.970;5.892;2023-08-24T07:50:06;33.83;;;28.10;;
47337;SDS011;33069;51.970;5.892;2023-08-24T07:52:54;31.88;;;27.23;;
47337;SDS011;33069;51.970;5.892;2023-08-24T07:55:41;28.73;;;25.85;;
47337;SDS011;33069;51.970;5.892;2023-08-24T07:58:28;28.25;;;25.55;;
47337;SDS011;33069;51.970;5.892;2023-08-24T08:01:16;36.60;;;28.75;;
47337;SDS011;33069;51.970;5.892;2023-08-24T08:04:02;31.65;;;28.45;;
47337;SDS011;33069;51.970;5.892;2023-08-24T08:06:48;30.45;;;27.42;;
47337;SDS011;33069;51.970;5.892;2023-08-24T08:09:35;31.23;;;27.13;;
47337;SDS011;33069;51.970;5.892;2023-08-24T08:12:22;30.63;;;24.73;;
47337;SDS011;33069;51.970;5.892;2023-08-24T08:15:08;29.73;;;26.75;;
47337;SDS011;33069;51.970;5.892;2023-08-24T08:17:54;30.85;;;27.63;;
47337;SDS011;33069;51.970;5.892;2023-08-24T08:20:40;29.00;;;26.02;;
47337;SDS011;33069;51.970;5.892;2023-08-24T08:23:26;31.90;;;28.25;;
47337;SDS011;33069;51.970;5.892;2023-08-24T08:26:12;31.13;;;28.00;;
47337;SDS011;33069;51.970;5.892;2023-08-24T08:28:59;29.08;;;26.30;;
47337;SDS011;33069;51.970;5.892;2023-08-24T08:31:45;30.25;;;27.15;;
47337;SDS011;33069;51.970;5.892;2023-08-24T08:34:31;35.53;;;31.98;;
47337;SDS011;33069;51.970;5.892;2023-08-24T08:37:17;43.90;;;39.38;;
47337;SDS011;33069;51.970;5.892;2023-08-24T08:40:03;30.40;;;27.67;;
47337;SDS011;33069;51.970;5.892;2023-08-24T08:42:52;42.05;;;36.30;;
47337;SDS011;33069;51.970;5.892;2023-08-24T08:45:40;31.23;;;27.98;;
47337;SDS011;33069;51.970;5.892;2023-08-24T08:48:26;30.50;;;27.60;;
47337;SDS011;33069;51.970;5.892;2023-08-24T08:51:16;31.70;;;28.58;;
47337;SDS011;33069;51.970;5.892;2023-08-24T08:54:04;35.08;;;31.40;;
47337;SDS011;33069;51.970;5.892;2023-08-24T08:56:50;35.53;;;32.00;;
47337;SDS011;33069;51.970;5.892;2023-08-24T08:59:37;30.23;;;27.15;;
47337;SDS011;33069;51.970;5.892;2023-08-24T09:02:24;30.50;;;27.50;;
47337;SDS011;33069;51.970;5.892;2023-08-24T09:05:11;33.78;;;28.05;;
47337;SDS011;33069;51.970;5.892;2023-08-24T09:07:57;33.88;;;27.92;;
47337;SDS011;33069;51.970;5.892;2023-08-24T09:10:45;31.40;;;28.42;;
47337;SDS011;33069;51.970;5.892;2023-08-24T09:13:31;31.80;;;28.75;;
47337;SDS011;33069;51.970;5.892;2023-08-24T09:16:18;30.95;;;27.70;;
47337;SDS011;33069;51.970;5.892;2023-08-24T09:19:05;32.05;;;28.92;;
47337;SDS011;33069;51.970;5.892;2023-08-24T09:21:56;30.73;;;27.90;;
47337;SDS011;33069;51.970;5.892;2023-08-24T09:24:43;31.63;;;27.92;;
47337;SDS011;33069;51.970;5.892;2023-08-24T09:27:30;30.50;;;27.35;;
47337;SDS011;33069;51.970;5.892;2023-08-24T09:30:17;30.30;;;27.20;;
47337;SDS011;33069;51.970;5.892;2023-08-24T09:33:10;31.40;;;28.45;;
47337;SDS011;33069;51.970;5.892;2023-08-24T09:35:56;28.10;;;25.42;;
47337;SDS011;33069;51.970;5.892;2023-08-24T09:38:47;526.50;;;69.15;;
47337;SDS011;33069;51.970;5.892;2023-08-24T09:41:40;36.35;;;26.77;;
47337;SDS011;33069;51.970;5.892;2023-08-24T09:44:28;29.27;;;26.25;;
47337;SDS011;33069;51.970;5.892;2023-08-24T09:47:13;29.08;;;26.25;;
47337;SDS011;33069;51.970;5.892;2023-08-24T09:50:00;28.60;;;25.63;;
47337;SDS011;33069;51.970;5.892;2023-08-24T09:52:47;34.25;;;28.20;;
47337;SDS011;33069;51.970;5.892;2023-08-24T09:55:38;29.88;;;26.95;;
47337;SDS011;33069;51.970;5.892;2023-08-24T09:58:27;29.90;;;26.70;;
47337;SDS011;33069;51.970;5.892;2023-08-24T10:01:13;28.75;;;25.77;;
47337;SDS011;33069;51.970;5.892;2023-08-24T10:04:00;29.50;;;26.17;;
47337;SDS011;33069;51.970;5.892;2023-08-24T10:07:08;28.52;;;25.55;;
47337;SDS011;33069;51.970;5.892;2023-08-24T10:09:57;27.15;;;24.38;;
47337;SDS011;33069;51.970;5.892;2023-08-24T10:12:50;34.55;;;27.25;;
47337;SDS011;33069;51.970;5.892;2023-08-24T10:15:38;27.85;;;24.88;;
47337;SDS011;33069;51.970;5.892;2023-08-24T10:18:31;28.88;;;26.10;;
47337;SDS011;33069;51.970;5.892;2023-08-24T10:21:17;31.60;;;28.63;;
47337;SDS011;33069;51.970;5.892;2023-08-24T10:24:04;29.02;;;26.25;;
47337;SDS011;33069;51.970;5.892;2023-08-24T10:26:51;30.98;;;27.88;;
47337;SDS011;33069;51.970;5.892;2023-08-24T10:29:39;31.40;;;27.63;;
47337;SDS011;33069;51.970;5.892;2023-08-24T10:32:25;29.75;;;26.95;;
47337;SDS011;33069;51.970;5.892;2023-08-24T10:35:12;30.45;;;27.55;;
47337;SDS011;33069;51.970;5.892;2023-08-24T10:38:01;31.05;;;27.90;;
47337;SDS011;33069;51.970;5.892;2023-08-24T10:40:47;32.35;;;28.58;;
47337;SDS011;33069;51.970;5.892;2023-08-24T10:43:39;30.30;;;27.67;;
47337;SDS011;33069;51.970;5.892;2023-08-24T10:46:26;30.90;;;28.20;;
47337;SDS011;33069;51.970;5.892;2023-08-24T10:49:18;30.05;;;27.30;;
47337;SDS011;33069;51.970;5.892;2023-08-24T10:52:16;29.05;;;26.58;;
47337;SDS011;33069;51.970;5.892;2023-08-24T10:55:22;28.85;;;26.40;;
47337;SDS011;33069;51.970;5.892;2023-08-24T10:58:12;29.38;;;26.55;;
47337;SDS011;33069;51.970;5.892;2023-08-24T11:01:02;27.13;;;24.73;;
47337;SDS011;33069;51.970;5.892;2023-08-24T11:03:49;31.67;;;28.63;;
47337;SDS011;33069;51.970;5.892;2023-08-24T11:06:50;28.75;;;26.05;;
47337;SDS011;33069;51.970;5.892;2023-08-24T11:09:44;28.90;;;25.70;;
47337;SDS011;33069;51.970;5.892;2023-08-24T11:15:51;28.58;;;25.45;;
47337;SDS011;33069;51.970;5.892;2023-08-24T11:18:42;29.25;;;25.80;;
47337;SDS011;33069;51.970;5.892;2023-08-24T11:21:28;28.08;;;25.27;;
47337;SDS011;33069;51.970;5.892;2023-08-24T11:24:15;25.02;;;22.73;;
47337;SDS011;33069;51.970;5.892;2023-08-24T11:27:01;25.55;;;23.35;;
47337;SDS011;33069;51.970;5.892;2023-08-24T11:30:09;31.42;;;25.88;;
47337;SDS011;33069;51.970;5.892;2023-08-24T11:32:55;28.08;;;24.90;;
47337;SDS011;33069;51.970;5.892;2023-08-24T11:35:42;26.52;;;23.77;;
47337;SDS011;33069;51.970;5.892;2023-08-24T11:38:39;25.70;;;22.95;;
47337;SDS011;33069;51.970;5.892;2023-08-24T11:41:26;31.83;;;24.02;;
47337;SDS011;33069;51.970;5.892;2023-08-24T11:44:12;37.38;;;26.95;;
47337;SDS011;33069;51.970;5.892;2023-08-24T11:46:58;34.60;;;27.42;;
47337;SDS011;33069;51.970;5.892;2023-08-24T11:49:44;36.35;;;26.88;;
47337;SDS011;33069;51.970;5.892;2023-08-24T11:52:30;27.88;;;24.98;;
47337;SDS011;33069;51.970;5.892;2023-08-24T11:55:21;27.10;;;24.60;;
47337;SDS011;33069;51.970;5.892;2023-08-24T11:58:15;31.80;;;25.85;;
47337;SDS011;33069;51.970;5.892;2023-08-24T12:01:02;26.95;;;24.15;;
47337;SDS011;33069;51.970;5.892;2023-08-24T12:03:48;30.55;;;27.40;;
47337;SDS011;33069;51.970;5.892;2023-08-24T12:06:34;33.08;;;27.50;;
47337;SDS011;33069;51.970;5.892;2023-08-24T12:09:20;28.73;;;25.67;;
47337;SDS011;33069;51.970;5.892;2023-08-24T12:12:13;28.50;;;25.60;;
47337;SDS011;33069;51.970;5.892;2023-08-24T12:14:59;29.73;;;26.80;;
47337;SDS011;33069;51.970;5.892;2023-08-24T12:17:45;31.90;;;28.48;;
47337;SDS011;33069;51.970;5.892;2023-08-24T12:20:33;33.47;;;29.80;;
47337;SDS011;33069;51.970;5.892;2023-08-24T12:23:19;31.02;;;26.35;;
47337;SDS011;33069;51.970;5.892;2023-08-24T12:26:05;28.00;;;25.52;;
47337;SDS011;33069;51.970;5.892;2023-08-24T12:28:53;30.80;;;27.85;;
47337;SDS011;33069;51.970;5.892;2023-08-24T12:31:42;30.73;;;27.85;;
47337;SDS011;33069;51.970;5.892;2023-08-24T12:34:29;33.78;;;29.75;;
47337;SDS011;33069;51.970;5.892;2023-08-24T12:37:14;31.77;;;28.15;;
47337;SDS011;33069;51.970;5.892;2023-08-24T12:40:01;36.22;;;29.40;;
47337;SDS011;33069;51.970;5.892;2023-08-24T12:42:50;35.05;;;31.40;;
47337;SDS011;33069;51.970;5.892;2023-08-24T12:45:36;36.17;;;32.58;;
47337;SDS011;33069;51.970;5.892;2023-08-24T12:48:23;34.08;;;30.52;;
47337;SDS011;33069;51.970;5.892;2023-08-24T12:51:09;37.13;;;32.63;;
47337;SDS011;33069;51.970;5.892;2023-08-24T12:53:55;33.95;;;30.60;;
47337;SDS011;33069;51.970;5.892;2023-08-24T12:56:41;34.28;;;30.75;;
47337;SDS011;33069;51.970;5.892;2023-08-24T12:59:27;30.75;;;27.75;;
47337;SDS011;33069;51.970;5.892;2023-08-24T13:02:13;41.50;;;30.48;;
47337;SDS011;33069;51.970;5.892;2023-08-24T13:04:59;34.65;;;29.80;;
47337;SDS011;33069;51.970;5.892;2023-08-24T13:07:49;32.67;;;29.40;;
47337;SDS011;33069;51.970;5.892;2023-08-24T13:10:36;36.00;;;32.30;;
47337;SDS011;33069;51.970;5.892;2023-08-24T13:13:22;37.67;;;33.63;;
47337;SDS011;33069;51.970;5.892;2023-08-24T13:16:08;30.50;;;26.88;;
47337;SDS011;33069;51.970;5.892;2023-08-24T13:18:54;29.98;;;27.05;;
47337;SDS011;33069;51.970;5.892;2023-08-24T13:21:40;25.27;;;23.02;;
47337;SDS011;33069;51.970;5.892;2023-08-24T13:24:26;24.25;;;22.25;;
47337;SDS011;33069;51.970;5.892;2023-08-24T13:27:12;31.50;;;28.60;;
47337;SDS011;33069;51.970;5.892;2023-08-24T13:30:01;24.75;;;22.33;;
47337;SDS011;33069;51.970;5.892;2023-08-24T13:32:47;26.45;;;23.48;;
47337;SDS011;33069;51.970;5.892;2023-08-24T13:35:33;25.60;;;23.13;;
47337;SDS011;33069;51.970;5.892;2023-08-24T13:38:20;28.50;;;20.35;;
47337;SDS011;33069;51.970;5.892;2023-08-24T13:41:06;25.08;;;22.92;;
47337;SDS011;33069;51.970;5.892;2023-08-24T13:43:52;26.10;;;23.35;;
47337;SDS011;33069;51.970;5.892;2023-08-24T13:46:37;25.38;;;22.88;;
47337;SDS011;33069;51.970;5.892;2023-08-24T13:49:23;28.92;;;19.55;;
47337;SDS011;33069;51.970;5.892;2023-08-24T13:52:09;24.25;;;21.90;;
47337;SDS011;33069;51.970;5.892;2023-08-24T13:54:56;21.30;;;19.40;;
47337;SDS011;33069;51.970;5.892;2023-08-24T13:57:42;23.80;;;21.40;;
47337;SDS011;33069;51.970;5.892;2023-08-24T14:00:28;26.77;;;24.05;;
47337;SDS011;33069;51.970;5.892;2023-08-24T14:03:14;22.30;;;20.45;;
47337;SDS011;33069;51.970;5.892;2023-08-24T14:06:00;23.52;;;21.48;;
47337;SDS011;33069;51.970;5.892;2023-08-24T14:08:46;22.67;;;20.67;;
47337;SDS011;33069;51.970;5.892;2023-08-24T14:11:32;23.20;;;20.95;;
47337;SDS011;33069;51.970;5.892;2023-08-24T14:14:18;23.52;;;21.48;;
47337;SDS011;33069;51.970;5.892;2023-08-24T14:17:05;25.20;;;22.48;;
47337;SDS011;33069;51.970;5.892;2023-08-24T14:19:51;24.17;;;22.08;;
47337;SDS011;33069;51.970;5.892;2023-08-24T14:22:37;24.77;;;22.30;;
47337;SDS011;33069;51.970;5.892;2023-08-24T14:25:23;24.20;;;21.77;;
47337;SDS011;33069;51.970;5.892;2023-08-24T14:28:09;26.13;;;23.42;;
47337;SDS011;33069;51.970;5.892;2023-08-24T14:30:55;25.20;;;22.85;;
47337;SDS011;33069;51.970;5.892;2023-08-24T14:33:41;20.73;;;18.75;;
47337;SDS011;33069;51.970;5.892;2023-08-24T14:36:27;23.77;;;21.33;;
47337;SDS011;33069;51.970;5.892;2023-08-24T14:39:14;22.42;;;20.08;;
47337;SDS011;33069;51.970;5.892;2023-08-24T14:42:00;22.95;;;20.83;;
47337;SDS011;33069;51.970;5.892;2023-08-24T14:44:48;26.40;;;21.20;;
47337;SDS011;33069;51.970;5.892;2023-08-24T14:47:34;25.48;;;22.50;;
47337;SDS011;33069;51.970;5.892;2023-08-24T14:50:20;27.63;;;24.70;;
47337;SDS011;33069;51.970;5.892;2023-08-24T14:53:06;22.27;;;20.15;;
47337;SDS011;33069;51.970;5.892;2023-08-24T14:55:55;22.65;;;20.35;;
47337;SDS011;33069;51.970;5.892;2023-08-24T14:58:42;22.77;;;20.45;;
47337;SDS011;33069;51.970;5.892;2023-08-24T15:01:28;22.80;;;20.50;;
47337;SDS011;33069;51.970;5.892;2023-08-24T15:04:15;22.20;;;20.33;;
47337;SDS011;33069;51.970;5.892;2023-08-24T15:07:01;23.00;;;20.90;;
47337;SDS011;33069;51.970;5.892;2023-08-24T15:09:47;23.17;;;20.80;;
47337;SDS011;33069;51.970;5.892;2023-08-24T15:12:33;23.02;;;20.65;;
47337;SDS011;33069;51.970;5.892;2023-08-24T15:15:19;24.65;;;21.33;;
47337;SDS011;33069;51.970;5.892;2023-08-24T15:18:05;20.83;;;19.15;;
47337;SDS011;33069;51.970;5.892;2023-08-24T15:20:51;20.38;;;18.58;;
47337;SDS011;33069;51.970;5.892;2023-08-24T15:23:37;20.83;;;18.88;;
47337;SDS011;33069;51.970;5.892;2023-08-24T15:26:23;19.85;;;17.95;;
47337;SDS011;33069;51.970;5.892;2023-08-24T15:29:11;20.77;;;17.30;;
47337;SDS011;33069;51.970;5.892;2023-08-24T15:32:00;19.25;;;17.30;;
47337;SDS011;33069;51.970;5.892;2023-08-24T15:34:46;19.55;;;17.58;;
47337;SDS011;33069;51.970;5.892;2023-08-24T15:37:32;18.55;;;16.75;;
47337;SDS011;33069;51.970;5.892;2023-08-24T15:40:18;17.60;;;15.70;;
47337;SDS011;33069;51.970;5.892;2023-08-24T15:43:05;17.88;;;16.35;;
47337;SDS011;33069;51.970;5.892;2023-08-24T15:45:51;27.65;;;24.83;;
47337;SDS011;33069;51.970;5.892;2023-08-24T15:48:37;20.40;;;18.30;;
47337;SDS011;33069;51.970;5.892;2023-08-24T15:51:24;19.25;;;17.20;;
47337;SDS011;33069;51.970;5.892;2023-08-24T15:54:10;18.60;;;16.88;;
47337;SDS011;33069;51.970;5.892;2023-08-24T15:56:56;18.65;;;16.95;;
47337;SDS011;33069;51.970;5.892;2023-08-24T15:59:44;16.73;;;15.13;;
47337;SDS011;33069;51.970;5.892;2023-08-24T16:02:30;18.85;;;17.23;;
47337;SDS011;33069;51.970;5.892;2023-08-24T16:05:16;15.68;;;14.48;;
47337;SDS011;33069;51.970;5.892;2023-08-24T16:08:02;15.88;;;14.48;;
47337;SDS011;33069;51.970;5.892;2023-08-24T16:10:49;16.27;;;14.98;;
47337;SDS011;33069;51.970;5.892;2023-08-24T16:13:35;16.38;;;14.85;;
47337;SDS011;33069;51.970;5.892;2023-08-24T16:16:21;16.92;;;15.43;;
47337;SDS011;33069;51.970;5.892;2023-08-24T16:19:07;18.20;;;16.48;;